Terminal Aerodrome Forecast
Issued by NWS Boston, MA

Current Version | Previous Version | Text Only | Print | Product List | Glossary On
Versions: 1 2 3 4 5 6 7 8 9 10 11 12 13 14 15 16 17 18 19 20 21 22 23 24 25 26 27 28
000 FTUS41 KBOX 222338 TAFORH TAF KORH 222338Z 2300/2324 03012G27KT 2SM RA BR OVC004 WS020/04040KT FM230200 02018G26KT 1SM +RA BR OVC003 FM231000 02015G27KT 1SM -RA BR OVC003 FM231500 01011G28KT 2SM -RA BR OVC008 FM231800 36011G22KT 3SM -SHRA BR OVC010=

USA.gov is the U.S. government's official web portal to all federal, state and local government web resources and services.